createdAt,value
2022-12-04T00:01:27.812Z,96463.41
2022-12-04T00:03:58.912Z,96469.19
2022-12-04T00:06:31.027Z,96476.03
2022-12-04T00:09:00.477Z,96466.06
2022-12-04T00:11:29.654Z,96465.28
2022-12-04T00:14:06.858Z,96457.34
2022-12-04T00:16:36.681Z,96459.56
2022-12-04T00:19:05.607Z,96461.84
2022-12-04T00:21:32.220Z,96453.16
2022-12-04T00:23:58.799Z,96451.97
2022-12-04T00:26:28.253Z,96464.19
2022-12-04T00:28:57.201Z,96453.00
2022-12-04T00:31:26.142Z,96455.34
2022-12-04T00:33:53.455Z,96448.94
2022-12-04T00:36:27.733Z,96456.63
2022-12-04T00:38:57.505Z,96452.69
2022-12-04T00:41:30.901Z,96452.28
2022-12-04T00:43:59.995Z,96450.78
2022-12-04T00:46:26.687Z,96452.69
2022-12-04T00:48:57.979Z,96447.38
2022-12-04T00:51:28.033Z,96454.97
2022-12-04T00:53:54.899Z,96452.63
2022-12-04T00:56:27.773Z,96470.66
2022-12-04T00:58:58.413Z,96466.06
2022-12-04T01:01:28.996Z,96471.00
2022-12-04T01:03:58.846Z,96468.69
2022-12-04T01:06:28.710Z,96462.63
2022-12-04T01:08:56.715Z,96464.53
2022-12-04T01:11:27.628Z,96456.81
2022-12-04T01:13:54.308Z,96452.38
2022-12-04T01:16:31.589Z,96448.97
2022-12-04T01:19:01.638Z,96462.25
2022-12-04T01:21:28.482Z,96453.91
2022-12-04T01:23:55.273Z,96458.03
2022-12-04T01:26:21.882Z,96453.13
2022-12-04T01:28:48.567Z,96462.22
2022-12-04T01:31:21.378Z,96461.44
2022-12-04T01:33:51.775Z,96464.16
2022-12-04T01:36:22.030Z,96468.78
2022-12-04T01:38:48.793Z,96457.72
2022-12-04T01:41:21.086Z,96459.22
2022-12-04T01:44:10.844Z,96461.53
2022-12-04T01:46:41.625Z,96466.09
2022-12-04T01:49:23.712Z,96456.09
2022-12-04T01:51:57.935Z,96452.63
2022-12-04T01:54:31.093Z,96449.25
2022-12-04T01:57:03.589Z,96453.84
2022-12-04T01:59:39.034Z,96454.97
2022-12-04T02:02:11.753Z,96454.53
2022-12-04T02:04:42.598Z,96442.63
2022-12-04T02:07:09.628Z,96443.47
2022-12-04T02:09:39.421Z,96437.72
2022-12-04T02:12:13.521Z,96437.03
2022-12-04T02:14:56.949Z,96437.03
2022-12-04T02:17:26.119Z,96435.81
2022-12-04T02:20:01.775Z,96432.78
2022-12-04T02:23:06.081Z,96433.09
2022-12-04T02:26:04.097Z,96424.28
2022-12-04T02:28:57.709Z,96423.13
2022-12-04T02:31:43.805Z,96418.88
2022-12-04T02:34:24.723Z,96420.09
2022-12-04T02:36:57.678Z,96413.66
2022-12-04T02:39:37.462Z,96407.22
2022-12-04T02:42:18.379Z,96419.78
2022-12-04T02:44:52.952Z,96427.00
2022-12-04T02:47:25.297Z,96423.91
2022-12-04T02:50:00.436Z,96427.72
2022-12-04T02:53:03.384Z,96420.84
2022-12-04T02:55:38.607Z,96430.84
2022-12-04T02:58:11.801Z,96439.53
2022-12-04T03:00:44.088Z,96444.56
2022-12-04T03:03:18.567Z,96439.94
2022-12-04T03:06:04.546Z,96443.38
2022-12-04T03:08:44.937Z,96448.72
2022-12-04T03:11:13.904Z,96440.72
2022-12-04T03:14:03.090Z,96447.56
2022-12-04T03:16:34.350Z,96447.28
2022-12-04T03:19:07.056Z,96439.94
2022-12-04T03:21:38.915Z,96444.16
2022-12-04T03:24:13.116Z,96442.66
2022-12-04T03:27:10.674Z,96442.63
2022-12-04T03:29:55.404Z,96433.81
2022-12-04T03:32:26.703Z,96430.34
2022-12-04T03:34:59.175Z,96434.63
2022-12-04T03:37:43.579Z,96417.09
2022-12-04T03:40:17.368Z,96422.44
2022-12-04T03:42:56.627Z,96428.16
2022-12-04T03:45:31.204Z,96426.25
2022-12-04T03:48:19.602Z,96420.53
2022-12-04T03:51:02.326Z,96411.75
2022-12-04T03:53:44.566Z,96422.81
2022-12-04T03:56:13.480Z,96430.78
2022-12-04T03:58:46.265Z,96432.34
2022-12-04T04:01:15.265Z,96423.22
2022-12-04T04:03:49.615Z,96421.69
2022-12-04T04:06:22.090Z,96416.69
2022-12-04T04:08:54.631Z,96413.63
2022-12-04T04:11:27.773Z,96408.72
2022-12-04T04:14:21.229Z,96417.03
2022-12-04T04:17:17.913Z,96410.13
2022-12-04T04:20:08.709Z,96404.88
2022-12-04T04:22:56.341Z,96426.22
2022-12-04T04:25:30.896Z,96427.75
2022-12-04T04:27:58.699Z,96422.69
2022-12-04T04:30:29.686Z,96431.47
2022-12-04T04:32:59.411Z,96421.22
2022-12-04T04:35:52.716Z,96422.78
2022-12-04T04:38:31.874Z,96428.50
2022-12-04T04:41:04.213Z,96419.00
2022-12-04T04:43:44.616Z,96406.75
2022-12-04T04:46:25.639Z,96404.81
2022-12-04T04:48:56.253Z,96395.59
2022-12-04T04:51:25.551Z,96397.59
2022-12-04T04:53:56.557Z,96403.69
2022-12-04T04:56:23.179Z,96400.25
2022-12-04T04:58:51.985Z,96407.13
2022-12-04T05:01:23.952Z,96410.63
2022-12-04T05:03:50.556Z,96420.84
2022-12-04T05:06:21.917Z,96409.41
2022-12-04T05:08:50.770Z,96407.94
2022-12-04T05:11:17.961Z,96414.03
2022-12-04T05:13:44.666Z,96420.47
2022-12-04T05:16:13.948Z,96417.84
2022-12-04T05:18:41.040Z,96412.09
2022-12-04T05:21:19.310Z,96417.47
2022-12-04T05:23:48.092Z,96421.69
2022-12-04T05:26:14.605Z,96428.47
2022-12-04T05:28:45.655Z,96422.97
2022-12-04T05:31:12.209Z,96420.75
2022-12-04T05:33:41.078Z,96416.91
2022-12-04T05:36:10.455Z,96413.16
2022-12-04T05:38:37.450Z,96425.00
2022-12-04T05:41:08.592Z,96421.84
2022-12-04T05:43:35.838Z,96428.00
2022-12-04T05:46:05.318Z,96427.25
2022-12-04T05:48:32.836Z,96431.06
2022-12-04T05:50:59.370Z,96426.13
2022-12-04T05:53:28.901Z,96425.41
2022-12-04T05:55:59.881Z,96429.19
2022-12-04T05:58:26.957Z,96426.50
2022-12-04T06:00:56.084Z,96428.03
2022-12-04T06:03:25.411Z,96430.31
2022-12-04T06:05:51.996Z,96437.16
2022-12-04T06:08:21.273Z,96441.03
2022-12-04T06:10:50.091Z,96447.88
2022-12-04T06:13:16.610Z,96443.75
2022-12-04T06:15:45.336Z,96436.50
2022-12-04T06:18:11.882Z,96451.44
2022-12-04T06:20:40.945Z,96448.38
2022-12-04T06:23:07.515Z,96445.66
2022-12-04T06:25:34.613Z,96446.84
2022-12-04T06:28:06.102Z,96449.88
2022-12-04T06:30:36.022Z,96457.97
2022-12-04T06:33:02.641Z,96449.94
2022-12-04T06:35:29.189Z,96447.56
2022-12-04T06:37:58.073Z,96461.78
2022-12-04T06:40:24.636Z,96462.97
2022-12-04T06:42:51.179Z,96461.47
2022-12-04T06:45:17.816Z,96472.09
2022-12-04T06:47:44.376Z,96473.69
2022-12-04T06:50:11.082Z,96469.50
2022-12-04T06:52:40.329Z,96462.19
2022-12-04T06:55:12.209Z,96466.84
2022-12-04T06:57:38.736Z,96467.59
2022-12-04T07:00:11.189Z,96469.41
2022-12-04T07:02:37.806Z,96467.59
2022-12-04T07:05:04.662Z,96465.66
2022-12-04T07:07:31.207Z,96479.44
2022-12-04T07:09:58.007Z,96478.53
2022-12-04T07:12:24.697Z,96472.91
2022-12-04T07:14:51.225Z,96474.44
2022-12-04T07:17:17.822Z,96477.88
2022-12-04T07:19:44.536Z,96485.16
2022-12-04T07:22:11.075Z,96487.50
2022-12-04T07:24:38.207Z,96484.41
2022-12-04T07:27:07.321Z,96483.28
2022-12-04T07:29:36.192Z,96486.31
2022-12-04T07:32:02.775Z,96483.16
2022-12-04T07:34:31.712Z,96471.00
2022-12-04T07:36:58.262Z,96472.19
2022-12-04T07:39:25.089Z,96477.31
2022-12-04T07:41:51.597Z,96475.81
2022-12-04T07:44:18.110Z,96471.31
2022-12-04T07:46:46.837Z,96469.03
2022-12-04T07:49:13.658Z,96474.69
2022-12-04T07:51:40.279Z,96469.75
2022-12-04T07:54:06.870Z,96475.53
2022-12-04T07:56:34.490Z,96476.28
2022-12-04T07:59:03.351Z,96473.69
2022-12-04T08:01:32.828Z,96476.28
2022-12-04T08:04:00.613Z,96472.09
2022-12-04T08:06:28.641Z,96469.84
2022-12-04T08:08:57.663Z,96470.63
2022-12-04T08:11:26.203Z,96481.25
2022-12-04T08:13:57.736Z,96499.09
2022-12-04T08:16:28.230Z,96498.78
2022-12-04T08:18:55.639Z,96504.59
2022-12-04T08:21:26.923Z,96500.81
2022-12-04T08:23:57.948Z,96493.56
2022-12-04T08:26:27.614Z,96484.00
2022-12-04T08:28:57.789Z,96484.44
2022-12-04T08:31:26.976Z,96485.84
2022-12-04T08:33:57.919Z,96470.25
2022-12-04T08:36:24.830Z,96475.69
2022-12-04T08:38:52.134Z,96476.00
2022-12-04T08:41:21.466Z,96471.38
2022-12-04T08:43:50.682Z,96477.16
2022-12-04T08:46:18.676Z,96485.88
2022-12-04T08:48:48.817Z,96478.31
2022-12-04T08:51:20.179Z,96481.34
2022-12-04T08:53:47.237Z,96482.56
2022-12-04T08:56:14.400Z,96487.97
2022-12-04T08:58:40.924Z,96491.78
2022-12-04T09:01:13.173Z,96494.72
2022-12-04T09:03:40.334Z,96503.13
2022-12-04T09:06:13.694Z,96499.34
2022-12-04T09:08:40.741Z,96502.06
2022-12-04T09:11:10.184Z,96494.91
2022-12-04T09:13:40.973Z,96493.03
2022-12-04T09:16:11.246Z,96494.13
2022-12-04T09:18:38.757Z,96493.78
2022-12-04T09:21:09.713Z,96501.00
2022-12-04T09:23:42.076Z,96502.16
2022-12-04T09:26:28.479Z,96506.78
2022-12-04T09:28:58.272Z,96512.38
2022-12-04T09:31:30.121Z,96512.00
2022-12-04T09:33:58.874Z,96518.81
2022-12-04T09:36:25.519Z,96517.34
2022-12-04T09:38:53.948Z,96515.78
2022-12-04T09:41:49.807Z,96512.75
2022-12-04T09:44:23.965Z,96500.22
2022-12-04T09:46:55.283Z,96493.75
2022-12-04T09:49:45.569Z,96507.75
2022-12-04T09:52:51.439Z,96510.56
2022-12-04T09:55:25.573Z,96525.00
2022-12-04T09:58:01.339Z,96525.38
2022-12-04T10:00:31.483Z,96527.22
2022-12-04T10:03:09.630Z,96518.94
2022-12-04T10:06:00.697Z,96523.03
2022-12-04T10:08:29.839Z,96510.97
2022-12-04T10:11:10.134Z,96505.34
2022-12-04T10:14:14.494Z,96496.97
2022-12-04T10:17:11.436Z,96502.63
2022-12-04T10:20:09.072Z,96497.53
2022-12-04T10:22:59.868Z,96493.22
2022-12-04T10:25:27.118Z,96492.47
2022-12-04T10:28:00.087Z,96493.06
2022-12-04T10:30:33.009Z,96485.63
2022-12-04T10:33:16.821Z,96489.88
2022-12-04T10:35:49.193Z,96480.44
2022-12-04T10:38:40.566Z,96484.56
2022-12-04T10:41:31.738Z,96476.22
2022-12-04T10:43:58.436Z,96483.84
2022-12-04T10:46:28.111Z,96483.06
2022-12-04T10:49:03.105Z,96484.22
2022-12-04T10:51:39.234Z,96476.28
2022-12-04T10:54:23.409Z,96477.19
2022-12-04T10:56:57.178Z,96471.31
2022-12-04T10:59:29.443Z,96475.94
2022-12-04T11:02:07.045Z,96466.47
2022-12-04T11:04:36.976Z,96463.88
2022-12-04T11:07:16.571Z,96467.25
2022-12-04T11:09:43.250Z,96449.66
2022-12-04T11:12:18.760Z,96448.13
2022-12-04T11:14:47.196Z,96452.34
2022-12-04T11:17:19.889Z,96442.84
2022-12-04T11:19:58.807Z,96437.81
2022-12-04T11:22:25.433Z,96424.09
2022-12-04T11:25:01.386Z,96419.91
2022-12-04T11:27:35.042Z,96415.75
2022-12-04T11:30:07.814Z,96406.22
2022-12-04T11:32:37.846Z,96396.28
2022-12-04T11:35:25.767Z,96393.56
2022-12-04T11:38:01.347Z,96380.19
2022-12-04T11:40:28.240Z,96383.25
2022-12-04T11:43:15.115Z,96384.78
2022-12-04T11:45:54.430Z,96390.16
2022-12-04T11:48:26.318Z,96411.19
2022-12-04T11:51:11.526Z,96416.09
2022-12-04T11:53:55.679Z,96419.91
2022-12-04T11:56:36.243Z,96410.00
2022-12-04T11:59:44.314Z,96407.69
2022-12-04T12:02:37.120Z,96406.13
2022-12-04T12:05:25.262Z,96406.13
2022-12-04T12:08:12.784Z,96410.69
2022-12-04T12:10:48.445Z,96417.19
2022-12-04T12:13:20.603Z,96425.19
2022-12-04T12:16:18.432Z,96424.47
2022-12-04T12:19:08.480Z,96419.50
2022-12-04T12:21:50.799Z,96429.75
2022-12-04T12:24:25.798Z,96420.16
2022-12-04T12:27:08.524Z,96418.25
2022-12-04T12:29:46.862Z,96420.94
2022-12-04T12:32:21.891Z,96411.03
2022-12-04T12:34:53.237Z,96406.41
2022-12-04T12:37:25.068Z,96403.78
2022-12-04T12:40:05.742Z,96402.63
2022-12-04T12:42:37.206Z,96405.66
2022-12-04T12:45:28.357Z,96403.34
2022-12-04T12:47:59.261Z,96402.97
2022-12-04T12:51:22.090Z,96402.91
2022-12-04T12:53:53.811Z,96395.69
2022-12-04T12:56:34.914Z,96394.94
2022-12-04T12:59:05.747Z,96388.84
2022-12-04T13:01:45.218Z,96380.03
2022-12-04T13:04:24.379Z,96382.34
2022-12-04T13:07:20.721Z,96382.38
2022-12-04T13:09:57.847Z,96382.34
2022-12-04T13:12:26.377Z,96381.19
2022-12-04T13:14:52.965Z,96383.50
2022-12-04T13:17:38.500Z,96383.16
2022-12-04T13:20:16.569Z,96380.47
2022-12-04T13:22:55.563Z,96367.84
2022-12-04T13:25:46.678Z,96371.69
2022-12-04T13:28:22.366Z,96370.94
2022-12-04T13:31:01.725Z,96366.72
2022-12-04T13:33:29.169Z,96369.44
2022-12-04T13:36:49.001Z,96366.72
2022-12-04T13:39:31.658Z,96370.97
2022-12-04T13:42:03.010Z,96369.81
2022-12-04T13:44:35.528Z,96371.34
2022-12-04T13:47:24.566Z,96372.47
2022-12-04T13:50:06.547Z,96364.06
2022-12-04T13:52:41.832Z,96364.47
2022-12-04T13:55:32.270Z,96363.69
2022-12-04T13:57:58.833Z,96365.19
2022-12-04T14:00:36.835Z,96364.03
2022-12-04T14:03:24.242Z,96359.06
2022-12-04T14:05:54.719Z,96369.00
2022-12-04T14:08:28.306Z,96368.25
2022-12-04T14:11:04.846Z,96360.63
2022-12-04T14:13:53.717Z,96364.47
2022-12-04T14:16:29.268Z,96361.78
2022-12-04T14:18:59.643Z,96367.91
2022-12-04T14:21:26.831Z,96380.50
2022-12-04T14:23:56.160Z,96373.53
2022-12-04T14:29:35.183Z,96380.81
2022-12-04T14:32:09.841Z,96386.94
2022-12-04T14:34:40.000Z,96385.38
2022-12-04T14:37:20.359Z,96383.47
2022-12-04T14:39:50.458Z,96399.97
2022-12-04T14:42:31.303Z,96405.66
2022-12-04T14:44:59.923Z,96401.50
2022-12-04T14:47:33.745Z,96400.72
2022-12-04T14:50:29.725Z,96404.91
2022-12-04T14:53:32.912Z,96400.28
2022-12-04T14:56:14.840Z,96398.78
2022-12-04T14:58:43.165Z,96402.25
2022-12-04T15:01:28.642Z,96403.41
2022-12-04T15:04:12.358Z,96407.97
2022-12-04T15:06:45.069Z,96409.50
2022-12-04T15:09:44.746Z,96391.13
2022-12-04T15:12:37.253Z,96385.75
2022-12-04T15:15:13.561Z,96388.78
2022-12-04T15:17:40.887Z,96391.06
2022-12-04T15:20:15.334Z,96393.41
2022-12-04T15:22:44.671Z,96392.28
2022-12-04T15:25:25.052Z,96383.91
2022-12-04T15:27:53.883Z,96391.56
2022-12-04T15:30:25.328Z,96396.13
2022-12-04T15:32:53.464Z,96390.75
2022-12-04T15:35:31.974Z,96398.38
2022-12-04T15:38:04.030Z,96396.44
2022-12-04T15:40:31.101Z,96397.22
2022-12-04T15:43:16.741Z,96391.84
2022-12-04T15:45:45.524Z,96397.19
2022-12-04T15:48:26.489Z,96405.16
2022-12-04T15:51:02.581Z,96416.66
2022-12-04T15:53:40.005Z,96413.19
2022-12-04T15:56:12.034Z,96418.94
2022-12-04T15:58:40.213Z,96408.25
2022-12-04T16:01:11.076Z,96418.19
2022-12-04T16:03:52.307Z,96410.94
2022-12-04T16:06:27.300Z,96417.09
2022-12-04T16:09:26.990Z,96422.50
2022-12-04T16:12:22.769Z,96417.13
2022-12-04T16:14:52.490Z,96409.88
2022-12-04T16:17:19.088Z,96414.47
2022-12-04T16:19:45.928Z,96407.59
2022-12-04T16:22:23.980Z,96414.09
2022-12-04T16:24:57.059Z,96420.94
2022-12-04T16:27:24.765Z,96415.94
2022-12-04T16:29:52.332Z,96414.06
2022-12-04T16:32:22.088Z,96416.38
2022-12-04T16:34:48.764Z,96411.81
2022-12-04T16:37:18.023Z,96408.00
2022-12-04T16:39:45.038Z,96401.06
2022-12-04T16:42:29.070Z,96411.72
2022-12-04T16:44:58.685Z,96413.25
2022-12-04T16:47:28.123Z,96431.97
2022-12-04T16:49:57.807Z,96446.47
2022-12-04T16:52:24.371Z,96449.25
2022-12-04T16:54:50.940Z,96450.03
2022-12-04T16:57:17.541Z,96453.00
2022-12-04T16:59:44.096Z,96472.94
2022-12-04T17:02:23.506Z,96488.94
2022-12-04T17:04:55.706Z,96482.78
2022-12-04T17:07:23.957Z,96467.19
2022-12-04T17:09:50.497Z,96473.34
2022-12-04T17:12:20.101Z,96476.38
2022-12-04T17:14:51.422Z,96474.50
2022-12-04T17:17:20.207Z,96464.97
2022-12-04T17:19:49.196Z,96471.06
2022-12-04T17:22:16.371Z,96479.53
2022-12-04T17:24:50.243Z,96485.94
2022-12-04T17:27:22.223Z,96479.41
2022-12-04T17:29:49.147Z,96480.16
2022-12-04T17:32:16.012Z,96484.78
2022-12-04T17:34:44.829Z,96482.09
2022-12-04T17:37:11.338Z,96482.88
2022-12-04T17:39:37.867Z,96490.53
2022-12-04T17:42:04.482Z,96499.38
2022-12-04T17:44:35.880Z,96508.06
2022-12-04T17:47:02.495Z,96510.28
2022-12-04T17:49:31.476Z,96512.25
2022-12-04T17:51:57.995Z,96508.88
2022-12-04T17:54:27.418Z,96518.09
2022-12-04T17:56:57.752Z,96518.09
2022-12-04T17:59:24.546Z,96515.75
2022-12-04T18:01:53.352Z,96520.66
2022-12-04T18:04:20.582Z,96518.31
2022-12-04T18:06:47.651Z,96534.72
2022-12-04T18:09:16.101Z,96543.56
2022-12-04T18:11:45.811Z,96546.59
2022-12-04T18:14:14.937Z,96555.03
2022-12-04T18:16:51.122Z,96551.22
2022-12-04T18:19:17.682Z,96553.91
2022-12-04T18:21:49.506Z,96554.31
2022-12-04T18:24:19.332Z,96563.91
2022-12-04T18:26:49.002Z,96550.47
2022-12-04T18:29:20.676Z,96549.00
2022-12-04T18:31:47.577Z,96539.84
2022-12-04T18:34:14.404Z,96534.50
2022-12-04T18:36:42.172Z,96539.47
2022-12-04T18:39:15.731Z,96554.34
2022-12-04T18:41:43.017Z,96549.66
2022-12-04T18:44:14.417Z,96546.31
2022-12-04T18:46:45.966Z,96557.84
2022-12-04T18:49:15.623Z,96560.03
2022-12-04T18:51:48.893Z,96557.31
2022-12-04T18:54:20.738Z,96552.81
2022-12-04T18:56:50.465Z,96555.75
2022-12-04T18:59:25.674Z,96565.25
2022-12-04T19:01:57.633Z,96570.69
2022-12-04T19:04:26.045Z,96569.84
2022-12-04T19:06:55.320Z,96571.31
2022-12-04T19:09:47.353Z,96582.44
2022-12-04T19:12:16.550Z,96586.28
2022-12-04T19:14:47.768Z,96580.13
2022-12-04T19:17:16.964Z,96574.41
2022-12-04T19:19:43.559Z,96574.81
2022-12-04T19:22:13.195Z,96570.69
2022-12-04T19:24:42.974Z,96572.94
2022-12-04T19:27:12.217Z,96573.34
2022-12-04T19:29:43.229Z,96576.81
2022-12-04T19:32:13.767Z,96574.50
2022-12-04T19:34:40.642Z,96570.28
2022-12-04T19:37:07.596Z,96570.19
2022-12-04T19:39:34.119Z,96570.97
2022-12-04T19:42:03.094Z,96563.25
2022-12-04T19:47:19.023Z,96564.47
2022-12-04T19:49:48.249Z,96553.75
2022-12-04T19:52:15.496Z,96557.97
2022-12-04T19:54:42.094Z,96567.13
2022-12-04T19:57:14.616Z,96568.22
2022-12-04T19:59:45.919Z,96560.97
2022-12-04T20:02:15.659Z,96556.44
2022-12-04T20:04:43.169Z,96556.03
2022-12-04T20:07:09.803Z,96556.47
2022-12-04T20:09:36.444Z,96564.81
2022-12-04T20:12:03.249Z,96575.59
2022-12-04T20:14:29.765Z,96575.59
2022-12-04T20:16:56.511Z,96579.50
2022-12-04T20:19:23.100Z,96593.97
2022-12-04T20:21:59.437Z,96606.16
2022-12-04T20:24:26.802Z,96613.50
2022-12-04T20:26:58.176Z,96612.31
2022-12-04T20:29:27.211Z,96591.72
2022-12-04T20:31:53.824Z,96593.50
2022-12-04T20:34:20.410Z,96603.47
2022-12-04T20:36:50.440Z,96591.91
2022-12-04T20:39:18.486Z,96595.41
2022-12-04T20:41:45.663Z,96597.81
2022-12-04T20:44:18.291Z,96599.75
2022-12-04T20:46:48.321Z,96603.03
2022-12-04T20:49:22.038Z,96607.28
2022-12-04T20:51:52.415Z,96616.16
2022-12-04T20:54:20.964Z,96622.38
2022-12-04T20:56:49.098Z,96633.84
2022-12-04T20:59:17.356Z,96633.78
2022-12-04T21:01:44.010Z,96642.59
2022-12-04T21:04:12.743Z,96646.50
2022-12-04T21:06:42.061Z,96644.69
2022-12-04T21:09:14.957Z,96640.50
2022-12-04T21:11:44.354Z,96633.53
2022-12-04T21:14:36.033Z,96630.13
2022-12-04T21:17:06.829Z,96631.63
2022-12-04T21:19:33.426Z,96640.78
2022-12-04T21:21:59.981Z,96631.66
2022-12-04T21:24:28.026Z,96635.78
2022-12-04T21:26:55.673Z,96629.72
2022-12-04T21:29:22.822Z,96632.81
2022-12-04T21:31:51.566Z,96627.16
2022-12-04T21:34:20.609Z,96634.03
2022-12-04T21:36:49.417Z,96640.53
2022-12-04T21:39:16.327Z,96660.00
2022-12-04T21:42:01.383Z,96671.50
2022-12-04T21:44:28.194Z,96660.44
2022-12-04T21:46:59.671Z,96670.38
2022-12-04T21:49:28.799Z,96683.38
2022-12-04T21:51:59.275Z,96689.41
2022-12-04T21:54:29.341Z,96684.19
2022-12-04T21:56:59.258Z,96686.53
2022-12-04T21:59:26.437Z,96696.72
2022-12-04T22:01:55.290Z,96694.13
2022-12-04T22:04:22.301Z,96696.78
2022-12-04T22:06:51.095Z,96703.34
2022-12-04T22:09:20.101Z,96709.50
2022-12-04T22:11:46.709Z,96730.09
2022-12-04T22:14:14.009Z,96750.38
2022-12-04T22:16:42.678Z,96746.19
2022-12-04T22:19:13.105Z,96743.53
2022-12-04T22:21:40.059Z,96743.84
2022-12-04T22:24:10.451Z,96732.78
2022-12-04T22:26:37.809Z,96727.06
2022-12-04T22:29:27.310Z,96721.75
2022-12-04T22:31:56.188Z,96737.84
2022-12-04T22:34:27.485Z,96753.91
2022-12-04T22:36:54.063Z,96759.31
2022-12-04T22:39:23.095Z,96754.00
2022-12-04T22:41:49.709Z,96752.88
2022-12-04T22:44:16.305Z,96764.72
2022-12-04T22:46:45.546Z,96765.50
2022-12-04T22:49:12.286Z,96768.97
2022-12-04T22:51:38.825Z,96768.63
2022-12-04T22:54:08.012Z,96758.25
2022-12-04T22:56:34.611Z,96760.19
2022-12-04T22:59:01.246Z,96757.06
2022-12-04T23:01:33.915Z,96768.56
2022-12-04T23:04:02.163Z,96769.38
2022-12-04T23:06:30.455Z,96779.75
2022-12-04T23:09:02.573Z,96794.69
2022-12-04T23:11:29.380Z,96793.56
2022-12-04T23:14:04.313Z,96797.03
2022-12-04T23:16:34.504Z,96805.84
2022-12-04T23:19:01.204Z,96812.34
2022-12-04T23:21:30.321Z,96820.34
2022-12-04T23:24:02.150Z,96818.44
2022-12-04T23:26:37.910Z,96806.94
2022-12-04T23:29:23.384Z,96803.13
2022-12-04T23:31:54.510Z,96796.25
2022-12-04T23:34:21.151Z,96796.25
2022-12-04T23:36:47.662Z,96789.41
2022-12-04T23:39:16.439Z,96790.56
2022-12-04T23:41:45.280Z,96792.84
2022-12-04T23:44:11.797Z,96806.25
2022-12-04T23:46:40.473Z,96818.16
2022-12-04T23:49:11.739Z,96830.78
2022-12-04T23:51:38.312Z,96831.94
2022-12-04T23:54:04.862Z,96828.78
2022-12-04T23:56:32.582Z,96838.41
2022-12-04T23:58:59.156Z,96852.63
